sensor_id;sensor_type;location;lat;lon;timestamp;temperature;humidity
11126;DHT22;5617;54.046;10.676;2023-04-16T00:00:53;9.10;99.90
11126;DHT22;5617;54.046;10.676;2023-04-16T00:03:03;9.10;99.90
11126;DHT22;5617;54.046;10.676;2023-04-16T00:05:11;9.20;99.90
11126;DHT22;5617;54.046;10.676;2023-04-16T00:07:19;9.20;99.90
11126;DHT22;5617;54.046;10.676;2023-04-16T00:09:26;9.20;99.90
11126;DHT22;5617;54.046;10.676;2023-04-16T00:11:34;9.20;99.90
11126;DHT22;5617;54.046;10.676;2023-04-16T00:13:42;9.30;99.90
11126;DHT22;5617;54.046;10.676;2023-04-16T00:15:50;9.30;99.90
11126;DHT22;5617;54.046;10.676;2023-04-16T00:17:58;9.30;99.90
11126;DHT22;5617;54.046;10.676;2023-04-16T00:20:08;9.30;99.90
11126;DHT22;5617;54.046;10.676;2023-04-16T00:22:16;9.40;99.90
11126;DHT22;5617;54.046;10.676;2023-04-16T00:24:24;9.40;99.90
11126;DHT22;5617;54.046;10.676;2023-04-16T00:26:32;9.30;99.90
11126;DHT22;5617;54.046;10.676;2023-04-16T00:28:40;9.30;99.90
11126;DHT22;5617;54.046;10.676;2023-04-16T00:30:48;9.30;99.90
11126;DHT22;5617;54.046;10.676;2023-04-16T00:32:56;9.30;99.90
11126;DHT22;5617;54.046;10.676;2023-04-16T00:35:07;9.30;99.90
11126;DHT22;5617;54.046;10.676;2023-04-16T00:37:15;9.30;99.90
11126;DHT22;5617;54.046;10.676;2023-04-16T00:39:23;9.30;99.90
11126;DHT22;5617;54.046;10.676;2023-04-16T00:41:31;9.40;99.90
11126;DHT22;5617;54.046;10.676;2023-04-16T00:43:39;9.40;99.90
11126;DHT22;5617;54.046;10.676;2023-04-16T00:45:47;9.40;99.90
11126;DHT22;5617;54.046;10.676;2023-04-16T00:47:55;9.40;99.90
11126;DHT22;5617;54.046;10.676;2023-04-16T00:50:08;9.40;99.90
11126;DHT22;5617;54.046;10.676;2023-04-16T00:52:16;9.40;99.90
11126;DHT22;5617;54.046;10.676;2023-04-16T00:54:24;9.50;99.90
11126;DHT22;5617;54.046;10.676;2023-04-16T00:56:33;9.50;99.90
11126;DHT22;5617;54.046;10.676;2023-04-16T00:58:42;9.50;99.90
11126;DHT22;5617;54.046;10.676;2023-04-16T01:00:49;9.50;99.90
11126;DHT22;5617;54.046;10.676;2023-04-16T01:02:58;9.50;99.90
11126;DHT22;5617;54.046;10.676;2023-04-16T01:05:08;9.50;99.90
11126;DHT22;5617;54.046;10.676;2023-04-16T01:07:16;9.50;99.90
11126;DHT22;5617;54.046;10.676;2023-04-16T01:09:24;9.50;99.90
11126;DHT22;5617;54.046;10.676;2023-04-16T01:11:32;9.50;99.90
11126;DHT22;5617;54.046;10.676;2023-04-16T01:13:39;9.50;99.90
11126;DHT22;5617;54.046;10.676;2023-04-16T01:15:47;9.50;99.90
11126;DHT22;5617;54.046;10.676;2023-04-16T01:17:55;9.50;99.90
11126;DHT22;5617;54.046;10.676;2023-04-16T01:20:04;9.50;99.90
11126;DHT22;5617;54.046;10.676;2023-04-16T01:22:13;9.50;99.90
11126;DHT22;5617;54.046;10.676;2023-04-16T01:24:21;9.50;99.90
11126;DHT22;5617;54.046;10.676;2023-04-16T01:26:29;9.50;99.90
11126;DHT22;5617;54.046;10.676;2023-04-16T01:28:37;9.50;99.90
11126;DHT22;5617;54.046;10.676;2023-04-16T01:30:45;9.60;99.90
11126;DHT22;5617;54.046;10.676;2023-04-16T01:32:53;9.60;99.90
11126;DHT22;5617;54.046;10.676;2023-04-16T01:35:00;9.60;99.90
11126;DHT22;5617;54.046;10.676;2023-04-16T01:37:10;9.60;99.90
11126;DHT22;5617;54.046;10.676;2023-04-16T01:39:20;9.60;99.90
11126;DHT22;5617;54.046;10.676;2023-04-16T01:41:27;9.60;99.90
11126;DHT22;5617;54.046;10.676;2023-04-16T01:43:37;9.60;99.90
11126;DHT22;5617;54.046;10.676;2023-04-16T01:45:46;9.60;99.90
11126;DHT22;5617;54.046;10.676;2023-04-16T01:47:54;9.60;99.90
11126;DHT22;5617;54.046;10.676;2023-04-16T01:50:02;9.60;99.90
11126;DHT22;5617;54.046;10.676;2023-04-16T01:52:10;9.60;99.90
11126;DHT22;5617;54.046;10.676;2023-04-16T01:54:19;9.60;99.90
11126;DHT22;5617;54.046;10.676;2023-04-16T01:56:27;9.60;99.90
11126;DHT22;5617;54.046;10.676;2023-04-16T01:58:35;9.60;99.90
11126;DHT22;5617;54.046;10.676;2023-04-16T02:00:46;9.70;99.90
11126;DHT22;5617;54.046;10.676;2023-04-16T02:02:54;9.70;99.90
11126;DHT22;5617;54.046;10.676;2023-04-16T02:05:03;9.60;99.90
11126;DHT22;5617;54.046;10.676;2023-04-16T02:07:11;9.60;99.90
11126;DHT22;5617;54.046;10.676;2023-04-16T02:09:20;9.60;99.90
11126;DHT22;5617;54.046;10.676;2023-04-16T02:11:28;9.60;99.90
11126;DHT22;5617;54.046;10.676;2023-04-16T02:13:36;9.60;99.90
11126;DHT22;5617;54.046;10.676;2023-04-16T02:15:45;9.60;99.90
11126;DHT22;5617;54.046;10.676;2023-04-16T02:17:53;9.60;99.90
11126;DHT22;5617;54.046;10.676;2023-04-16T02:20:02;9.70;99.90
11126;DHT22;5617;54.046;10.676;2023-04-16T02:22:13;9.70;99.90
11126;DHT22;5617;54.046;10.676;2023-04-16T02:24:22;9.70;99.90
11126;DHT22;5617;54.046;10.676;2023-04-16T02:26:30;9.70;99.90
11126;DHT22;5617;54.046;10.676;2023-04-16T02:28:38;9.70;99.90
11126;DHT22;5617;54.046;10.676;2023-04-16T02:30:48;9.70;99.90
11126;DHT22;5617;54.046;10.676;2023-04-16T02:32:56;9.70;99.90
11126;DHT22;5617;54.046;10.676;2023-04-16T02:35:05;9.70;99.90
11126;DHT22;5617;54.046;10.676;2023-04-16T02:37:13;9.70;99.90
11126;DHT22;5617;54.046;10.676;2023-04-16T02:39:22;9.70;99.90
11126;DHT22;5617;54.046;10.676;2023-04-16T02:41:30;9.70;99.90
11126;DHT22;5617;54.046;10.676;2023-04-16T02:43:38;9.70;99.90
11126;DHT22;5617;54.046;10.676;2023-04-16T02:45:46;9.70;99.90
11126;DHT22;5617;54.046;10.676;2023-04-16T02:47:54;9.70;99.90
11126;DHT22;5617;54.046;10.676;2023-04-16T02:50:02;9.60;99.90
11126;DHT22;5617;54.046;10.676;2023-04-16T02:52:10;9.70;99.90
11126;DHT22;5617;54.046;10.676;2023-04-16T02:54:22;9.70;99.90
11126;DHT22;5617;54.046;10.676;2023-04-16T02:56:30;9.70;99.90
11126;DHT22;5617;54.046;10.676;2023-04-16T02:58:38;9.70;99.90
11126;DHT22;5617;54.046;10.676;2023-04-16T03:00:46;9.70;99.90
11126;DHT22;5617;54.046;10.676;2023-04-16T03:02:54;9.80;99.90
11126;DHT22;5617;54.046;10.676;2023-04-16T03:05:02;9.70;99.90
11126;DHT22;5617;54.046;10.676;2023-04-16T03:07:10;9.70;99.90
11126;DHT22;5617;54.046;10.676;2023-04-16T03:09:19;9.70;99.90
11126;DHT22;5617;54.046;10.676;2023-04-16T03:11:28;9.80;99.90
11126;DHT22;5617;54.046;10.676;2023-04-16T03:13:36;9.80;99.90
11126;DHT22;5617;54.046;10.676;2023-04-16T03:15:47;9.80;99.90
11126;DHT22;5617;54.046;10.676;2023-04-16T03:17:55;9.80;99.90
11126;DHT22;5617;54.046;10.676;2023-04-16T03:20:04;9.70;99.90
11126;DHT22;5617;54.046;10.676;2023-04-16T03:22:12;9.70;99.90
11126;DHT22;5617;54.046;10.676;2023-04-16T03:24:20;9.60;99.90
11126;DHT22;5617;54.046;10.676;2023-04-16T03:26:29;9.60;99.90
11126;DHT22;5617;54.046;10.676;2023-04-16T03:28:37;9.60;99.90
11126;DHT22;5617;54.046;10.676;2023-04-16T03:30:49;9.60;99.90
11126;DHT22;5617;54.046;10.676;2023-04-16T03:32:57;9.60;99.90
11126;DHT22;5617;54.046;10.676;2023-04-16T03:35:07;9.70;99.90
11126;DHT22;5617;54.046;10.676;2023-04-16T03:37:15;9.60;99.90
11126;DHT22;5617;54.046;10.676;2023-04-16T03:39:22;9.70;99.90
11126;DHT22;5617;54.046;10.676;2023-04-16T03:41:32;9.70;99.90
11126;DHT22;5617;54.046;10.676;2023-04-16T03:43:39;9.70;99.90
11126;DHT22;5617;54.046;10.676;2023-04-16T03:45:47;9.60;99.90
11126;DHT22;5617;54.046;10.676;2023-04-16T03:47:55;9.60;99.90
11126;DHT22;5617;54.046;10.676;2023-04-16T03:50:04;9.60;99.90
11126;DHT22;5617;54.046;10.676;2023-04-16T03:52:12;9.60;99.90
11126;DHT22;5617;54.046;10.676;2023-04-16T03:54:19;9.60;99.90
11126;DHT22;5617;54.046;10.676;2023-04-16T03:56:28;9.60;99.90
11126;DHT22;5617;54.046;10.676;2023-04-16T03:58:37;9.60;99.90
11126;DHT22;5617;54.046;10.676;2023-04-16T04:00:45;9.60;99.90
11126;DHT22;5617;54.046;10.676;2023-04-16T04:02:53;9.60;99.90
11126;DHT22;5617;54.046;10.676;2023-04-16T04:05:01;9.60;99.90
11126;DHT22;5617;54.046;10.676;2023-04-16T04:07:09;9.60;99.90
11126;DHT22;5617;54.046;10.676;2023-04-16T04:09:16;9.60;99.90
11126;DHT22;5617;54.046;10.676;2023-04-16T04:11:24;9.70;99.90
11126;DHT22;5617;54.046;10.676;2023-04-16T04:13:32;9.70;99.90
11126;DHT22;5617;54.046;10.676;2023-04-16T04:15:41;9.70;99.90
11126;DHT22;5617;54.046;10.676;2023-04-16T04:17:49;9.70;99.90
11126;DHT22;5617;54.046;10.676;2023-04-16T04:19:57;9.70;99.90
11126;DHT22;5617;54.046;10.676;2023-04-16T04:22:07;9.80;99.90
11126;DHT22;5617;54.046;10.676;2023-04-16T04:24:15;9.80;99.90
11126;DHT22;5617;54.046;10.676;2023-04-16T04:26:22;9.80;99.90
11126;DHT22;5617;54.046;10.676;2023-04-16T04:28:31;9.80;99.90
11126;DHT22;5617;54.046;10.676;2023-04-16T04:30:40;9.80;99.90
11126;DHT22;5617;54.046;10.676;2023-04-16T04:32:48;9.80;99.90
11126;DHT22;5617;54.046;10.676;2023-04-16T04:34:57;9.80;99.90
11126;DHT22;5617;54.046;10.676;2023-04-16T04:37:05;9.80;99.90
11126;DHT22;5617;54.046;10.676;2023-04-16T04:39:12;9.80;99.90
11126;DHT22;5617;54.046;10.676;2023-04-16T04:41:20;9.80;99.90
11126;DHT22;5617;54.046;10.676;2023-04-16T04:43:28;9.80;99.90
11126;DHT22;5617;54.046;10.676;2023-04-16T04:45:36;9.80;99.90
11126;DHT22;5617;54.046;10.676;2023-04-16T04:47:45;9.80;99.90
11126;DHT22;5617;54.046;10.676;2023-04-16T04:49:53;9.80;99.90
11126;DHT22;5617;54.046;10.676;2023-04-16T04:52:01;9.80;99.90
11126;DHT22;5617;54.046;10.676;2023-04-16T04:54:09;9.80;99.90
11126;DHT22;5617;54.046;10.676;2023-04-16T04:56:16;9.90;99.90
11126;DHT22;5617;54.046;10.676;2023-04-16T04:58:24;9.80;99.90
11126;DHT22;5617;54.046;10.676;2023-04-16T05:00:32;9.80;99.90
11126;DHT22;5617;54.046;10.676;2023-04-16T05:02:40;9.80;99.90
11126;DHT22;5617;54.046;10.676;2023-04-16T05:04:49;9.90;99.90
11126;DHT22;5617;54.046;10.676;2023-04-16T05:06:57;9.90;99.90
11126;DHT22;5617;54.046;10.676;2023-04-16T05:09:05;9.90;99.90
11126;DHT22;5617;54.046;10.676;2023-04-16T05:11:17;9.90;99.90
11126;DHT22;5617;54.046;10.676;2023-04-16T05:13:24;9.90;99.90
11126;DHT22;5617;54.046;10.676;2023-04-16T05:15:32;9.90;99.90
11126;DHT22;5617;54.046;10.676;2023-04-16T05:17:40;9.90;99.90
11126;DHT22;5617;54.046;10.676;2023-04-16T05:19:49;9.90;99.90
11126;DHT22;5617;54.046;10.676;2023-04-16T05:21:57;10.00;99.90
11126;DHT22;5617;54.046;10.676;2023-04-16T05:24:05;9.90;99.90
11126;DHT22;5617;54.046;10.676;2023-04-16T05:26:13;9.90;99.90
11126;DHT22;5617;54.046;10.676;2023-04-16T05:28:21;9.80;99.90
11126;DHT22;5617;54.046;10.676;2023-04-16T05:30:29;9.80;99.90
11126;DHT22;5617;54.046;10.676;2023-04-16T05:32:38;9.70;99.90
11126;DHT22;5617;54.046;10.676;2023-04-16T05:34:46;9.80;99.90
11126;DHT22;5617;54.046;10.676;2023-04-16T05:36:55;9.80;99.90
11126;DHT22;5617;54.046;10.676;2023-04-16T05:39:03;9.70;99.90
11126;DHT22;5617;54.046;10.676;2023-04-16T05:41:10;9.80;99.90
11126;DHT22;5617;54.046;10.676;2023-04-16T05:43:18;9.80;99.90
11126;DHT22;5617;54.046;10.676;2023-04-16T05:45:26;9.80;99.90
11126;DHT22;5617;54.046;10.676;2023-04-16T05:47:34;9.70;99.90
11126;DHT22;5617;54.046;10.676;2023-04-16T05:49:42;9.70;99.90
11126;DHT22;5617;54.046;10.676;2023-04-16T05:51:49;9.80;99.90
11126;DHT22;5617;54.046;10.676;2023-04-16T05:53:58;9.80;99.90
11126;DHT22;5617;54.046;10.676;2023-04-16T05:56:07;9.80;99.90
11126;DHT22;5617;54.046;10.676;2023-04-16T05:58:15;9.80;99.90
11126;DHT22;5617;54.046;10.676;2023-04-16T06:00:23;9.80;99.90
11126;DHT22;5617;54.046;10.676;2023-04-16T06:02:31;9.80;99.90
11126;DHT22;5617;54.046;10.676;2023-04-16T06:04:39;9.80;99.90
11126;DHT22;5617;54.046;10.676;2023-04-16T06:06:46;9.80;99.90
11126;DHT22;5617;54.046;10.676;2023-04-16T06:08:55;9.80;99.90
11126;DHT22;5617;54.046;10.676;2023-04-16T06:11:04;9.80;99.90
11126;DHT22;5617;54.046;10.676;2023-04-16T06:13:12;9.80;99.90
11126;DHT22;5617;54.046;10.676;2023-04-16T06:15:20;9.80;99.90
11126;DHT22;5617;54.046;10.676;2023-04-16T06:17:28;9.80;99.90
11126;DHT22;5617;54.046;10.676;2023-04-16T06:19:35;9.80;99.90
11126;DHT22;5617;54.046;10.676;2023-04-16T06:21:43;9.80;99.90
11126;DHT22;5617;54.046;10.676;2023-04-16T06:23:51;9.80;99.90
11126;DHT22;5617;54.046;10.676;2023-04-16T06:25:59;9.90;99.90
11126;DHT22;5617;54.046;10.676;2023-04-16T06:28:08;9.90;99.90
11126;DHT22;5617;54.046;10.676;2023-04-16T06:30:15;9.90;99.90
11126;DHT22;5617;54.046;10.676;2023-04-16T06:32:24;10.00;99.90
11126;DHT22;5617;54.046;10.676;2023-04-16T06:34:32;10.00;99.90
11126;DHT22;5617;54.046;10.676;2023-04-16T06:36:39;10.00;99.90
11126;DHT22;5617;54.046;10.676;2023-04-16T06:38:47;10.10;99.90
11126;DHT22;5617;54.046;10.676;2023-04-16T06:40:55;10.10;99.90
11126;DHT22;5617;54.046;10.676;2023-04-16T06:43:04;10.20;99.90
11126;DHT22;5617;54.046;10.676;2023-04-16T06:45:13;10.20;99.90
11126;DHT22;5617;54.046;10.676;2023-04-16T06:47:21;10.20;99.90
11126;DHT22;5617;54.046;10.676;2023-04-16T06:49:29;10.20;99.90
11126;DHT22;5617;54.046;10.676;2023-04-16T06:51:37;10.20;99.90
11126;DHT22;5617;54.046;10.676;2023-04-16T06:53:45;10.20;99.90
11126;DHT22;5617;54.046;10.676;2023-04-16T06:55:53;10.30;99.90
11126;DHT22;5617;54.046;10.676;2023-04-16T06:58:01;10.30;99.90
11126;DHT22;5617;54.046;10.676;2023-04-16T07:00:09;10.30;99.90
11126;DHT22;5617;54.046;10.676;2023-04-16T07:02:19;10.30;99.90
11126;DHT22;5617;54.046;10.676;2023-04-16T07:04:27;10.30;99.90
11126;DHT22;5617;54.046;10.676;2023-04-16T07:06:35;10.40;99.90
11126;DHT22;5617;54.046;10.676;2023-04-16T07:08:42;10.40;99.90
11126;DHT22;5617;54.046;10.676;2023-04-16T07:10:51;10.40;99.90
11126;DHT22;5617;54.046;10.676;2023-04-16T07:12:59;10.50;99.90
11126;DHT22;5617;54.046;10.676;2023-04-16T07:15:09;10.50;99.90
11126;DHT22;5617;54.046;10.676;2023-04-16T07:17:16;10.50;99.90
11126;DHT22;5617;54.046;10.676;2023-04-16T07:19:26;10.50;99.90
11126;DHT22;5617;54.046;10.676;2023-04-16T07:21:38;10.50;99.90
11126;DHT22;5617;54.046;10.676;2023-04-16T07:23:47;10.60;99.90
11126;DHT22;5617;54.046;10.676;2023-04-16T07:25:55;10.60;99.90
11126;DHT22;5617;54.046;10.676;2023-04-16T07:28:03;10.50;99.90
11126;DHT22;5617;54.046;10.676;2023-04-16T07:30:11;10.50;99.90
11126;DHT22;5617;54.046;10.676;2023-04-16T07:32:20;10.60;99.90
11126;DHT22;5617;54.046;10.676;2023-04-16T07:34:31;10.60;99.90
11126;DHT22;5617;54.046;10.676;2023-04-16T07:36:39;10.60;99.90
11126;DHT22;5617;54.046;10.676;2023-04-16T07:38:47;10.50;99.90
11126;DHT22;5617;54.046;10.676;2023-04-16T07:40:55;10.50;99.90
11126;DHT22;5617;54.046;10.676;2023-04-16T07:43:03;10.40;99.90
11126;DHT22;5617;54.046;10.676;2023-04-16T07:45:11;10.30;99.90
11126;DHT22;5617;54.046;10.676;2023-04-16T07:47:19;10.30;99.90
11126;DHT22;5617;54.046;10.676;2023-04-16T07:49:28;10.30;99.90
11126;DHT22;5617;54.046;10.676;2023-04-16T07:51:37;10.30;99.90
11126;DHT22;5617;54.046;10.676;2023-04-16T07:53:45;10.30;99.90
11126;DHT22;5617;54.046;10.676;2023-04-16T07:55:53;10.30;99.90
11126;DHT22;5617;54.046;10.676;2023-04-16T07:58:00;10.10;99.90
11126;DHT22;5617;54.046;10.676;2023-04-16T08:00:09;10.10;99.90
11126;DHT22;5617;54.046;10.676;2023-04-16T08:02:17;10.00;99.90
11126;DHT22;5617;54.046;10.676;2023-04-16T08:04:25;10.00;99.90
11126;DHT22;5617;54.046;10.676;2023-04-16T08:06:33;10.00;99.90
11126;DHT22;5617;54.046;10.676;2023-04-16T08:08:43;10.00;99.90
11126;DHT22;5617;54.046;10.676;2023-04-16T08:10:51;10.00;99.90
11126;DHT22;5617;54.046;10.676;2023-04-16T08:13:01;9.90;99.90
11126;DHT22;5617;54.046;10.676;2023-04-16T08:15:09;9.90;99.90
11126;DHT22;5617;54.046;10.676;2023-04-16T08:17:17;9.90;99.90
11126;DHT22;5617;54.046;10.676;2023-04-16T08:19:25;9.90;99.90
11126;DHT22;5617;54.046;10.676;2023-04-16T08:21:33;10.00;99.90
11126;DHT22;5617;54.046;10.676;2023-04-16T08:23:42;10.00;99.90
11126;DHT22;5617;54.046;10.676;2023-04-16T08:25:50;10.00;99.90
11126;DHT22;5617;54.046;10.676;2023-04-16T08:27:59;10.00;99.90
11126;DHT22;5617;54.046;10.676;2023-04-16T08:30:07;10.10;99.90
11126;DHT22;5617;54.046;10.676;2023-04-16T08:32:15;10.10;99.90
11126;DHT22;5617;54.046;10.676;2023-04-16T08:34:23;10.10;99.90
11126;DHT22;5617;54.046;10.676;2023-04-16T08:36:31;10.20;99.90
11126;DHT22;5617;54.046;10.676;2023-04-16T08:38:39;10.20;99.90
11126;DHT22;5617;54.046;10.676;2023-04-16T08:40:48;10.30;99.90
11126;DHT22;5617;54.046;10.676;2023-04-16T08:42:58;10.30;99.90
11126;DHT22;5617;54.046;10.676;2023-04-16T08:45:07;10.30;99.90
11126;DHT22;5617;54.046;10.676;2023-04-16T08:47:22;10.30;99.90
11126;DHT22;5617;54.046;10.676;2023-04-16T08:49:32;10.30;99.90
11126;DHT22;5617;54.046;10.676;2023-04-16T08:51:46;10.30;99.90
11126;DHT22;5617;54.046;10.676;2023-04-16T08:54:02;10.30;99.90
11126;DHT22;5617;54.046;10.676;2023-04-16T08:56:12;10.30;99.90
11126;DHT22;5617;54.046;10.676;2023-04-16T08:58:21;10.40;99.90
11126;DHT22;5617;54.046;10.676;2023-04-16T09:00:30;10.30;99.90
11126;DHT22;5617;54.046;10.676;2023-04-16T09:02:39;10.30;99.90
11126;DHT22;5617;54.046;10.676;2023-04-16T09:04:49;10.30;99.90
11126;DHT22;5617;54.046;10.676;2023-04-16T09:06:58;10.30;99.90
11126;DHT22;5617;54.046;10.676;2023-04-16T09:09:07;10.30;99.90
11126;DHT22;5617;54.046;10.676;2023-04-16T09:11:18;10.30;99.90
11126;DHT22;5617;54.046;10.676;2023-04-16T09:13:26;10.30;99.90
11126;DHT22;5617;54.046;10.676;2023-04-16T09:15:34;10.30;99.90
11126;DHT22;5617;54.046;10.676;2023-04-16T09:17:42;10.30;99.90
11126;DHT22;5617;54.046;10.676;2023-04-16T09:19:50;10.20;99.90
11126;DHT22;5617;54.046;10.676;2023-04-16T09:21:58;10.20;99.90
11126;DHT22;5617;54.046;10.676;2023-04-16T09:24:07;10.10;99.90
11126;DHT22;5617;54.046;10.676;2023-04-16T09:26:15;10.00;99.90
11126;DHT22;5617;54.046;10.676;2023-04-16T09:28:40;9.90;99.90
11126;DHT22;5617;54.046;10.676;2023-04-16T09:30:48;9.80;99.90
11126;DHT22;5617;54.046;10.676;2023-04-16T09:33:11;9.70;99.90
11126;DHT22;5617;54.046;10.676;2023-04-16T09:35:20;9.70;99.90
11126;DHT22;5617;54.046;10.676;2023-04-16T09:37:29;9.60;99.90
11126;DHT22;5617;54.046;10.676;2023-04-16T09:39:37;9.60;99.90
11126;DHT22;5617;54.046;10.676;2023-04-16T09:41:44;9.50;99.90
11126;DHT22;5617;54.046;10.676;2023-04-16T09:43:55;9.40;99.90
11126;DHT22;5617;54.046;10.676;2023-04-16T09:46:04;9.40;99.90
11126;DHT22;5617;54.046;10.676;2023-04-16T09:48:14;9.40;99.90
11126;DHT22;5617;54.046;10.676;2023-04-16T09:50:25;9.40;99.90
11126;DHT22;5617;54.046;10.676;2023-04-16T09:52:35;9.50;99.90
11126;DHT22;5617;54.046;10.676;2023-04-16T09:54:48;9.50;99.90
11126;DHT22;5617;54.046;10.676;2023-04-16T09:56:56;9.50;99.90
11126;DHT22;5617;54.046;10.676;2023-04-16T09:59:05;9.50;99.90
11126;DHT22;5617;54.046;10.676;2023-04-16T10:01:13;9.50;99.90
11126;DHT22;5617;54.046;10.676;2023-04-16T10:03:28;9.50;99.90
11126;DHT22;5617;54.046;10.676;2023-04-16T10:05:37;9.50;99.90
11126;DHT22;5617;54.046;10.676;2023-04-16T10:07:45;9.60;99.90
11126;DHT22;5617;54.046;10.676;2023-04-16T10:09:54;9.60;99.90
11126;DHT22;5617;54.046;10.676;2023-04-16T10:12:03;9.60;99.90
11126;DHT22;5617;54.046;10.676;2023-04-16T10:14:13;9.70;99.90
11126;DHT22;5617;54.046;10.676;2023-04-16T10:16:21;9.70;99.90
11126;DHT22;5617;54.046;10.676;2023-04-16T10:18:29;9.70;99.90
11126;DHT22;5617;54.046;10.676;2023-04-16T10:20:37;9.70;99.90
11126;DHT22;5617;54.046;10.676;2023-04-16T10:22:46;9.60;99.90
11126;DHT22;5617;54.046;10.676;2023-04-16T10:24:54;9.60;99.90
11126;DHT22;5617;54.046;10.676;2023-04-16T10:27:02;9.70;99.90
11126;DHT22;5617;54.046;10.676;2023-04-16T10:29:10;9.80;99.90
11126;DHT22;5617;54.046;10.676;2023-04-16T10:31:20;9.80;99.90
11126;DHT22;5617;54.046;10.676;2023-04-16T10:33:30;9.90;99.90
11126;DHT22;5617;54.046;10.676;2023-04-16T10:35:39;9.90;99.90
11126;DHT22;5617;54.046;10.676;2023-04-16T10:37:47;9.90;99.90
11126;DHT22;5617;54.046;10.676;2023-04-16T10:39:54;10.00;99.90
11126;DHT22;5617;54.046;10.676;2023-04-16T10:42:07;10.10;99.90
11126;DHT22;5617;54.046;10.676;2023-04-16T10:44:16;10.20;99.90
11126;DHT22;5617;54.046;10.676;2023-04-16T10:46:30;10.30;99.90
11126;DHT22;5617;54.046;10.676;2023-04-16T10:48:38;10.30;99.90
11126;DHT22;5617;54.046;10.676;2023-04-16T10:50:57;10.40;99.90
11126;DHT22;5617;54.046;10.676;2023-04-16T10:53:19;10.60;99.90
11126;DHT22;5617;54.046;10.676;2023-04-16T10:55:29;10.70;99.90
11126;DHT22;5617;54.046;10.676;2023-04-16T10:57:36;10.70;99.90
11126;DHT22;5617;54.046;10.676;2023-04-16T10:59:44;10.70;99.90
11126;DHT22;5617;54.046;10.676;2023-04-16T11:01:55;10.80;99.90
11126;DHT22;5617;54.046;10.676;2023-04-16T11:04:28;10.90;99.90
11126;DHT22;5617;54.046;10.676;2023-04-16T11:06:39;11.00;99.90
11126;DHT22;5617;54.046;10.676;2023-04-16T11:08:47;11.10;99.90
11126;DHT22;5617;54.046;10.676;2023-04-16T11:11:17;11.10;99.90
11126;DHT22;5617;54.046;10.676;2023-04-16T11:13:25;11.20;99.90
11126;DHT22;5617;54.046;10.676;2023-04-16T11:15:32;11.20;99.90
11126;DHT22;5617;54.046;10.676;2023-04-16T11:17:43;11.30;99.90
11126;DHT22;5617;54.046;10.676;2023-04-16T11:19:51;11.30;99.90
11126;DHT22;5617;54.046;10.676;2023-04-16T11:21:59;11.40;99.90
11126;DHT22;5617;54.046;10.676;2023-04-16T11:24:11;11.40;99.90
11126;DHT22;5617;54.046;10.676;2023-04-16T11:26:23;11.40;99.90
11126;DHT22;5617;54.046;10.676;2023-04-16T11:28:32;11.40;99.90
11126;DHT22;5617;54.046;10.676;2023-04-16T11:30:40;11.40;99.90
11126;DHT22;5617;54.046;10.676;2023-04-16T11:32:49;11.40;99.90
11126;DHT22;5617;54.046;10.676;2023-04-16T11:34:57;11.40;99.90
11126;DHT22;5617;54.046;10.676;2023-04-16T11:37:09;11.40;99.90
11126;DHT22;5617;54.046;10.676;2023-04-16T11:39:16;11.50;99.90
11126;DHT22;5617;54.046;10.676;2023-04-16T11:41:24;11.50;99.90
11126;DHT22;5617;54.046;10.676;2023-04-16T11:43:32;11.50;99.90
11126;DHT22;5617;54.046;10.676;2023-04-16T11:45:41;11.50;99.90
11126;DHT22;5617;54.046;10.676;2023-04-16T11:48:01;11.40;99.90
11126;DHT22;5617;54.046;10.676;2023-04-16T11:50:20;11.40;99.90
11126;DHT22;5617;54.046;10.676;2023-04-16T11:52:29;11.40;99.90
11126;DHT22;5617;54.046;10.676;2023-04-16T11:54:37;11.40;99.90
11126;DHT22;5617;54.046;10.676;2023-04-16T11:56:47;11.40;99.90
11126;DHT22;5617;54.046;10.676;2023-04-16T11:59:08;11.50;99.90
11126;DHT22;5617;54.046;10.676;2023-04-16T12:01:19;11.50;99.90
11126;DHT22;5617;54.046;10.676;2023-04-16T12:03:41;11.60;99.90
11126;DHT22;5617;54.046;10.676;2023-04-16T12:05:51;11.60;99.90
11126;DHT22;5617;54.046;10.676;2023-04-16T12:08:01;11.70;99.90
11126;DHT22;5617;54.046;10.676;2023-04-16T12:10:09;11.80;99.90
11126;DHT22;5617;54.046;10.676;2023-04-16T12:12:27;11.90;99.90
11126;DHT22;5617;54.046;10.676;2023-04-16T12:14:36;11.90;99.90
11126;DHT22;5617;54.046;10.676;2023-04-16T12:16:44;11.90;99.90
11126;DHT22;5617;54.046;10.676;2023-04-16T12:19:00;11.80;99.90
11126;DHT22;5617;54.046;10.676;2023-04-16T12:21:09;11.80;99.90
11126;DHT22;5617;54.046;10.676;2023-04-16T12:23:25;11.90;99.90
11126;DHT22;5617;54.046;10.676;2023-04-16T12:25:33;11.90;99.90
11126;DHT22;5617;54.046;10.676;2023-04-16T12:27:45;11.90;99.90
11126;DHT22;5617;54.046;10.676;2023-04-16T12:30:04;11.80;99.90
11126;DHT22;5617;54.046;10.676;2023-04-16T12:32:20;11.90;99.90
11126;DHT22;5617;54.046;10.676;2023-04-16T12:34:30;11.90;99.90
11126;DHT22;5617;54.046;10.676;2023-04-16T12:37:07;11.90;99.90
11126;DHT22;5617;54.046;10.676;2023-04-16T12:39:15;12.00;99.90
11126;DHT22;5617;54.046;10.676;2023-04-16T12:41:23;12.10;99.90
11126;DHT22;5617;54.046;10.676;2023-04-16T12:43:30;12.10;99.90
11126;DHT22;5617;54.046;10.676;2023-04-16T12:45:39;12.20;99.90
11126;DHT22;5617;54.046;10.676;2023-04-16T12:47:47;12.40;99.90
11126;DHT22;5617;54.046;10.676;2023-04-16T12:49:57;12.40;99.90
11126;DHT22;5617;54.046;10.676;2023-04-16T12:52:05;12.40;99.90
11126;DHT22;5617;54.046;10.676;2023-04-16T12:54:13;12.50;99.90
11126;DHT22;5617;54.046;10.676;2023-04-16T12:56:21;12.50;99.90
11126;DHT22;5617;54.046;10.676;2023-04-16T12:58:28;12.60;99.90
11126;DHT22;5617;54.046;10.676;2023-04-16T13:00:36;12.60;99.90
11126;DHT22;5617;54.046;10.676;2023-04-16T13:02:44;12.70;99.90
11126;DHT22;5617;54.046;10.676;2023-04-16T13:04:53;12.70;99.90
11126;DHT22;5617;54.046;10.676;2023-04-16T13:07:02;12.70;99.90
11126;DHT22;5617;54.046;10.676;2023-04-16T13:09:10;12.70;99.90
11126;DHT22;5617;54.046;10.676;2023-04-16T13:11:18;12.70;99.90
11126;DHT22;5617;54.046;10.676;2023-04-16T13:13:26;12.70;99.90
11126;DHT22;5617;54.046;10.676;2023-04-16T13:15:34;12.60;99.90
11126;DHT22;5617;54.046;10.676;2023-04-16T13:17:41;12.60;99.90
11126;DHT22;5617;54.046;10.676;2023-04-16T13:19:49;12.60;99.90
11126;DHT22;5617;54.046;10.676;2023-04-16T13:21:57;12.60;99.90
11126;DHT22;5617;54.046;10.676;2023-04-16T13:24:07;12.50;99.90
11126;DHT22;5617;54.046;10.676;2023-04-16T13:26:14;12.20;99.90
11126;DHT22;5617;54.046;10.676;2023-04-16T13:28:22;11.80;99.90
11126;DHT22;5617;54.046;10.676;2023-04-16T13:30:30;11.50;99.90
11126;DHT22;5617;54.046;10.676;2023-04-16T13:32:39;11.40;99.90
11126;DHT22;5617;54.046;10.676;2023-04-16T13:34:47;11.40;99.90
11126;DHT22;5617;54.046;10.676;2023-04-16T13:36:55;11.40;99.90
11126;DHT22;5617;54.046;10.676;2023-04-16T13:39:02;11.30;99.90
11126;DHT22;5617;54.046;10.676;2023-04-16T13:41:17;11.20;99.90
11126;DHT22;5617;54.046;10.676;2023-04-16T13:43:25;11.20;99.90